createdAt,value
2023-04-28T00:01:12.285Z,79.40
2023-04-28T00:03:39.076Z,79.70
2023-04-28T00:06:06.180Z,80.40
2023-04-28T00:08:32.989Z,80.00
2023-04-28T00:11:00.267Z,80.80
2023-04-28T00:13:27.020Z,80.80
2023-04-28T00:15:54.021Z,80.60
2023-04-28T00:18:21.072Z,80.90
2023-04-28T00:20:47.915Z,81.20
2023-04-28T00:23:14.511Z,81.40
2023-04-28T00:25:41.117Z,81.30
2023-04-28T00:28:07.696Z,81.40
2023-04-28T00:30:34.309Z,81.00
2023-04-28T00:33:00.944Z,80.40
2023-04-28T00:35:27.567Z,80.80
2023-04-28T00:37:54.120Z,81.10
2023-04-28T00:40:21.081Z,81.20
2023-04-28T00:42:47.689Z,81.40
2023-04-28T00:45:14.274Z,81.70
2023-04-28T00:47:42.173Z,82.10
2023-04-28T00:50:10.438Z,82.30
2023-04-28T00:52:38.283Z,82.40
2023-04-28T00:55:05.364Z,82.70
2023-04-28T00:57:32.191Z,83.20
2023-04-28T00:59:58.817Z,83.00
2023-04-28T01:02:25.979Z,82.90
2023-04-28T01:04:52.670Z,82.80
2023-04-28T01:07:19.334Z,83.30
2023-04-28T01:09:47.806Z,83.50
2023-04-28T01:12:14.610Z,83.30
2023-04-28T01:14:41.256Z,83.10
2023-04-28T01:17:08.334Z,83.40
2023-04-28T01:19:34.908Z,83.60
2023-04-28T01:22:01.493Z,83.70
2023-04-28T01:24:28.078Z,83.90
2023-04-28T01:26:54.706Z,84.10
2023-04-28T01:29:21.270Z,84.30
2023-04-28T01:31:48.072Z,84.50
2023-04-28T01:34:14.967Z,84.30
2023-04-28T01:36:41.818Z,84.20
2023-04-28T01:39:08.446Z,83.50
2023-04-28T01:41:35.132Z,84.20
2023-04-28T01:44:01.780Z,83.90
2023-04-28T01:46:28.435Z,83.60
2023-04-28T01:48:55.105Z,83.90
2023-04-28T01:51:21.741Z,83.90
2023-04-28T01:53:48.312Z,83.70
2023-04-28T01:56:14.930Z,83.70
2023-04-28T01:58:41.575Z,83.40
2023-04-28T02:01:08.227Z,83.10
2023-04-28T02:03:34.960Z,83.90
2023-04-28T02:06:01.689Z,83.20
2023-04-28T02:08:28.286Z,82.90
2023-04-28T02:10:54.856Z,83.90
2023-04-28T02:13:21.410Z,83.70
2023-04-28T02:15:48.012Z,84.10
2023-04-28T02:18:14.655Z,83.70
2023-04-28T02:20:41.306Z,83.90
2023-04-28T02:23:07.904Z,83.40
2023-04-28T02:25:34.500Z,83.20
2023-04-28T02:28:01.129Z,83.30
2023-04-28T02:30:27.708Z,83.30
2023-04-28T02:32:54.421Z,83.30
2023-04-28T02:35:21.182Z,83.30
2023-04-28T02:37:49.617Z,83.20
2023-04-28T02:40:16.329Z,83.20
2023-04-28T02:42:42.966Z,83.30
2023-04-28T02:45:09.730Z,83.20
2023-04-28T02:47:36.346Z,83.20
2023-04-28T02:50:02.984Z,83.00
2023-04-28T02:52:29.542Z,83.10
2023-04-28T02:54:57.618Z,83.20
2023-04-28T02:57:24.389Z,83.50
2023-04-28T02:59:51.040Z,83.60
2023-04-28T03:02:17.843Z,83.50
2023-04-28T03:04:44.562Z,83.60
2023-04-28T03:07:11.378Z,83.80
2023-04-28T03:09:37.973Z,84.10
2023-04-28T03:12:04.647Z,84.30
2023-04-28T03:14:31.325Z,83.60
2023-04-28T03:16:58.021Z,84.10
2023-04-28T03:19:24.618Z,84.10
2023-04-28T03:21:51.237Z,84.50
2023-04-28T03:24:18.085Z,84.50
2023-04-28T03:26:44.899Z,83.80
2023-04-28T03:29:11.557Z,83.90
2023-04-28T03:31:38.271Z,83.80
2023-04-28T03:34:04.902Z,84.00
2023-04-28T03:36:32.043Z,84.00
2023-04-28T03:38:58.664Z,83.70
2023-04-28T03:41:25.273Z,84.40
2023-04-28T03:43:53.319Z,84.20
2023-04-28T03:46:19.988Z,84.20
2023-04-28T03:48:46.695Z,84.40
2023-04-28T03:51:13.327Z,83.70
2023-04-28T03:53:40.009Z,84.00
2023-04-28T03:56:06.941Z,83.90
2023-04-28T03:58:33.589Z,84.10
2023-04-28T04:01:00.935Z,84.10
2023-04-28T04:03:28.024Z,83.70
2023-04-28T04:05:55.750Z,84.00
2023-04-28T04:08:22.455Z,83.70
2023-04-28T04:10:49.062Z,83.90
2023-04-28T04:13:15.741Z,84.10
2023-04-28T04:15:42.414Z,84.00
2023-04-28T04:18:09.138Z,84.10
2023-04-28T04:20:35.932Z,83.80
2023-04-28T04:23:03.493Z,83.90
2023-04-28T04:25:30.383Z,83.50
2023-04-28T04:27:56.936Z,83.00
2023-04-28T04:30:23.536Z,83.60
2023-04-28T04:32:50.169Z,83.50
2023-04-28T04:35:17.097Z,83.10
2023-04-28T04:37:43.866Z,83.30
2023-04-28T04:40:10.725Z,83.00
2023-04-28T04:42:37.312Z,83.00
2023-04-28T04:45:04.062Z,82.40
2023-04-28T04:47:30.748Z,83.10
2023-04-28T04:49:57.599Z,82.90
2023-04-28T04:52:24.158Z,82.20
2023-04-28T04:54:50.800Z,82.10
2023-04-28T04:57:17.458Z,82.40
2023-04-28T04:59:44.084Z,82.40
2023-04-28T05:02:11.022Z,82.70
2023-04-28T05:04:37.958Z,82.20
2023-04-28T05:07:04.620Z,82.10
2023-04-28T05:09:32.020Z,81.90
2023-04-28T05:11:58.682Z,81.60
2023-04-28T05:14:25.513Z,82.20
2023-04-28T05:16:52.271Z,81.70
2023-04-28T05:19:18.893Z,82.30
2023-04-28T05:21:47.599Z,82.30
2023-04-28T05:24:17.187Z,82.30
2023-04-28T05:26:44.123Z,82.20
2023-04-28T05:29:10.716Z,82.20
2023-04-28T05:31:37.361Z,82.60
2023-04-28T05:34:04.156Z,82.30
2023-04-28T05:36:31.978Z,82.50
2023-04-28T05:38:58.740Z,81.80
2023-04-28T05:41:25.571Z,81.90
2023-04-28T05:43:52.284Z,81.50
2023-04-28T05:46:29.840Z,81.60
2023-04-28T05:48:57.199Z,81.30
2023-04-28T05:51:23.871Z,81.60
2023-04-28T05:53:50.510Z,81.40
2023-04-28T05:56:17.121Z,80.70
2023-04-28T05:58:47.384Z,80.00
2023-04-28T06:01:13.976Z,80.00
2023-04-28T06:03:43.527Z,79.30
2023-04-28T06:06:10.986Z,79.20
2023-04-28T06:08:40.589Z,78.60
2023-04-28T06:11:07.322Z,78.70
2023-04-28T06:13:33.953Z,78.20
2023-04-28T06:16:00.679Z,79.20
2023-04-28T06:18:27.411Z,77.20
2023-04-28T06:20:54.027Z,76.40
2023-04-28T06:23:21.058Z,76.80
2023-04-28T06:25:47.760Z,76.60
2023-04-28T06:28:14.950Z,77.00
2023-04-28T06:30:41.701Z,75.50
2023-04-28T06:33:08.993Z,74.00
2023-04-28T06:35:39.513Z,73.90
2023-04-28T06:38:06.637Z,72.40
2023-04-28T06:40:33.262Z,71.70
2023-04-28T06:42:59.843Z,71.10
2023-04-28T06:45:26.525Z,70.20
2023-04-28T06:47:55.609Z,70.50
2023-04-28T06:50:22.999Z,70.80
2023-04-28T06:52:49.581Z,70.50
2023-04-28T06:55:17.294Z,70.40
2023-04-28T06:57:44.420Z,70.20
2023-04-28T07:00:11.296Z,69.50
2023-04-28T07:02:38.250Z,68.20
2023-04-28T07:05:05.205Z,68.10
2023-04-28T07:09:59.080Z,68.00
2023-04-28T07:12:25.758Z,66.00
2023-04-28T07:14:52.397Z,66.00
2023-04-28T07:17:19.112Z,66.30
2023-04-28T07:19:45.836Z,67.30
2023-04-28T07:22:12.654Z,67.40
2023-04-28T07:24:39.429Z,65.90
2023-04-28T07:27:06.230Z,66.20
2023-04-28T07:29:35.016Z,65.70
2023-04-28T07:32:01.957Z,67.00
2023-04-28T07:34:28.923Z,66.70
2023-04-28T07:36:56.037Z,66.90
2023-04-28T07:39:22.660Z,66.00
2023-04-28T07:41:49.680Z,66.20
2023-04-28T07:44:16.694Z,66.00
2023-04-28T07:46:43.441Z,66.70
2023-04-28T07:49:10.201Z,66.60
2023-04-28T07:51:37.098Z,67.60
2023-04-28T07:54:03.757Z,66.20
2023-04-28T07:56:30.351Z,66.50
2023-04-28T07:58:57.049Z,69.40
2023-04-28T08:01:23.727Z,67.40
2023-04-28T08:03:50.539Z,66.80
2023-04-28T08:06:17.466Z,68.00
2023-04-28T08:08:44.072Z,67.10
2023-04-28T08:11:10.963Z,66.50
2023-04-28T08:13:37.602Z,67.80
2023-04-28T08:16:04.347Z,66.60
2023-04-28T08:18:31.589Z,66.30
2023-04-28T08:20:58.230Z,66.60
2023-04-28T08:23:28.191Z,65.60
2023-04-28T08:25:55.220Z,64.10
2023-04-28T08:28:21.836Z,64.60
2023-04-28T08:30:48.658Z,63.90
2023-04-28T08:33:15.407Z,63.90
2023-04-28T08:35:42.128Z,63.80
2023-04-28T08:38:13.830Z,63.70
2023-04-28T08:40:42.678Z,63.00
2023-04-28T08:43:10.696Z,63.90
2023-04-28T08:45:41.523Z,63.50
2023-04-28T08:48:13.776Z,63.70
2023-04-28T08:50:42.517Z,64.40
2023-04-28T08:53:10.532Z,63.60
2023-04-28T08:55:37.479Z,62.70
2023-04-28T08:58:04.911Z,64.20
2023-04-28T09:00:31.528Z,62.80
2023-04-28T09:02:58.321Z,62.30
2023-04-28T09:05:25.793Z,61.50
2023-04-28T09:07:52.637Z,61.70
2023-04-28T09:10:20.410Z,62.40
2023-04-28T09:12:48.908Z,62.40
2023-04-28T09:15:29.247Z,63.30
2023-04-28T09:17:57.005Z,62.00
2023-04-28T09:20:24.632Z,61.30
2023-04-28T09:22:51.749Z,59.70
2023-04-28T09:25:19.327Z,61.90
2023-04-28T09:27:46.258Z,61.00
2023-04-28T09:30:13.080Z,62.40
2023-04-28T09:32:39.750Z,61.20
2023-04-28T09:35:07.365Z,61.10
2023-04-28T09:37:34.913Z,61.90
2023-04-28T09:40:04.848Z,59.40
2023-04-28T09:42:37.465Z,60.20
2023-04-28T09:45:07.200Z,61.10
2023-04-28T09:47:35.602Z,61.30
2023-04-28T09:50:04.784Z,61.00
2023-04-28T09:52:33.008Z,59.40
2023-04-28T09:55:01.231Z,61.20
2023-04-28T09:57:30.659Z,59.10
2023-04-28T09:59:57.951Z,58.20
2023-04-28T10:02:42.658Z,57.50
2023-04-28T10:05:11.526Z,58.10
2023-04-28T10:07:39.181Z,57.70
2023-04-28T10:10:06.849Z,56.70
2023-04-28T10:12:33.752Z,56.40
2023-04-28T10:15:00.422Z,56.20
2023-04-28T10:17:29.423Z,55.20
2023-04-28T10:19:57.048Z,55.70
2023-04-28T10:22:23.856Z,54.90
2023-04-28T10:25:02.493Z,54.00
2023-04-28T10:27:30.130Z,53.10
2023-04-28T10:30:23.077Z,53.00
2023-04-28T10:33:11.833Z,53.00
2023-04-28T10:35:43.184Z,53.00
2023-04-28T10:38:16.511Z,52.60
2023-04-28T10:40:46.770Z,52.50
2023-04-28T10:43:26.264Z,52.40
2023-04-28T10:45:56.232Z,53.90
2023-04-28T10:48:43.537Z,52.30
2023-04-28T10:51:10.191Z,52.50
2023-04-28T10:53:47.214Z,51.90
2023-04-28T10:56:27.193Z,52.40
2023-04-28T10:58:57.588Z,51.90
2023-04-28T11:01:25.082Z,53.30
2023-04-28T11:04:08.291Z,52.80
2023-04-28T11:07:04.431Z,52.00
2023-04-28T11:09:31.337Z,52.10
2023-04-28T11:12:00.816Z,51.70
2023-04-28T11:14:43.267Z,51.60
2023-04-28T11:17:13.070Z,50.70
2023-04-28T11:19:43.657Z,51.50
2023-04-28T11:22:20.473Z,52.40
2023-04-28T11:24:59.263Z,52.70
2023-04-28T11:27:26.851Z,54.40
2023-04-28T11:29:54.043Z,54.90
2023-04-28T11:32:33.981Z,53.60
2023-04-28T11:35:01.044Z,52.50
2023-04-28T11:37:27.783Z,54.10
2023-04-28T11:39:54.541Z,54.30
2023-04-28T11:42:21.366Z,53.70
2023-04-28T11:44:54.376Z,54.30
2023-04-28T11:47:31.291Z,54.90
2023-04-28T11:49:58.621Z,53.50
2023-04-28T11:52:27.255Z,54.60
2023-04-28T11:54:55.404Z,56.20
2023-04-28T11:57:23.142Z,55.90
2023-04-28T11:59:50.574Z,57.40
2023-04-28T12:02:24.756Z,54.90
2023-04-28T12:04:52.169Z,55.30
2023-04-28T12:07:19.629Z,54.30
2023-04-28T12:10:09.555Z,55.80
2023-04-28T12:12:45.877Z,54.30
2023-04-28T12:15:19.386Z,52.50
2023-04-28T12:17:47.225Z,55.00
2023-04-28T12:20:34.563Z,53.60
2023-04-28T12:23:02.522Z,54.10
2023-04-28T12:25:29.405Z,54.00
2023-04-28T12:28:02.707Z,54.20
2023-04-28T12:30:32.004Z,55.80
2023-04-28T12:32:58.918Z,55.90
2023-04-28T12:35:26.551Z,57.10
2023-04-28T12:37:53.771Z,56.40
2023-04-28T12:40:23.104Z,56.50
2023-04-28T12:42:50.823Z,56.50
2023-04-28T12:45:17.570Z,56.30
2023-04-28T12:47:44.367Z,58.10
2023-04-28T12:50:11.027Z,57.50
2023-04-28T12:52:37.682Z,56.80
2023-04-28T12:55:04.796Z,56.90
2023-04-28T12:57:31.612Z,57.40
2023-04-28T12:59:58.237Z,57.40
2023-04-28T13:02:25.176Z,57.80
2023-04-28T13:04:53.300Z,59.20
2023-04-28T13:07:20.353Z,57.50
2023-04-28T13:09:47.604Z,58.70
2023-04-28T13:12:14.909Z,56.90
2023-04-28T13:14:41.867Z,57.40
2023-04-28T13:17:09.136Z,58.20
2023-04-28T13:19:36.068Z,58.40
2023-04-28T13:22:05.206Z,59.70
2023-04-28T13:24:33.522Z,58.00
2023-04-28T13:27:00.431Z,59.30
2023-04-28T13:29:27.046Z,57.50
2023-04-28T13:31:53.713Z,59.30
2023-04-28T13:34:20.333Z,58.20
2023-04-28T13:36:48.169Z,58.30
2023-04-28T13:39:15.042Z,58.10
2023-04-28T13:41:42.054Z,58.40
2023-04-28T13:44:09.337Z,59.80
2023-04-28T13:46:36.074Z,58.40
2023-04-28T13:49:02.667Z,58.50
2023-04-28T13:51:29.403Z,61.00
2023-04-28T13:53:56.492Z,59.00
2023-04-28T13:56:23.101Z,59.90
2023-04-28T13:58:49.690Z,59.60
2023-04-28T14:01:16.356Z,59.30
2023-04-28T14:03:44.625Z,59.00
2023-04-28T14:06:11.525Z,59.70
2023-04-28T14:08:38.269Z,61.10
2023-04-28T14:11:05.054Z,61.40
2023-04-28T14:13:31.752Z,62.20
2023-04-28T14:15:59.696Z,62.50
2023-04-28T14:18:29.726Z,62.30
2023-04-28T14:20:56.564Z,62.70
2023-04-28T14:23:23.293Z,63.30
2023-04-28T14:25:50.405Z,62.80
2023-04-28T14:28:17.232Z,63.30
2023-04-28T14:30:44.099Z,63.30
2023-04-28T14:33:10.886Z,63.50
2023-04-28T14:35:37.526Z,64.10
2023-04-28T14:38:04.350Z,64.10
2023-04-28T14:40:31.305Z,64.30
2023-04-28T14:42:57.925Z,64.00
2023-04-28T14:45:24.928Z,64.20
2023-04-28T14:47:51.748Z,64.70
2023-04-28T14:50:18.618Z,65.10
2023-04-28T14:52:45.604Z,65.00
2023-04-28T14:55:12.215Z,65.20
2023-04-28T14:57:38.883Z,65.50
2023-04-28T15:00:07.193Z,65.20
2023-04-28T15:02:34.274Z,66.30
2023-04-28T15:05:01.535Z,66.10
2023-04-28T15:07:31.298Z,65.20
2023-04-28T15:09:59.307Z,65.50
2023-04-28T15:12:26.297Z,66.10
2023-04-28T15:14:53.771Z,66.10
2023-04-28T15:17:21.536Z,65.40
2023-04-28T15:19:48.307Z,66.00
2023-04-28T15:22:15.124Z,66.30
2023-04-28T15:24:41.757Z,66.60
2023-04-28T15:27:08.448Z,66.50
2023-04-28T15:29:35.062Z,66.60
2023-04-28T15:32:01.922Z,67.10
2023-04-28T15:34:28.615Z,67.00
2023-04-28T15:36:55.487Z,66.70
2023-04-28T15:39:23.290Z,67.40
2023-04-28T15:41:50.339Z,67.70
2023-04-28T15:44:17.006Z,67.90
2023-04-28T15:46:44.926Z,69.00
2023-04-28T15:49:12.059Z,69.00
2023-04-28T15:51:38.684Z,69.60
2023-04-28T15:54:05.567Z,69.80
2023-04-28T15:56:32.235Z,69.90
2023-04-28T15:58:58.868Z,70.40
2023-04-28T16:01:25.598Z,70.50
2023-04-28T16:03:52.444Z,70.30
2023-04-28T16:06:19.299Z,71.30
2023-04-28T16:08:45.905Z,72.00
2023-04-28T16:11:17.716Z,73.50
2023-04-28T16:13:44.856Z,72.40
2023-04-28T16:16:12.072Z,72.80
2023-04-28T16:18:38.974Z,73.50
2023-04-28T16:21:05.681Z,74.50
2023-04-28T16:23:32.371Z,75.20
2023-04-28T16:25:59.027Z,75.60
2023-04-28T16:28:26.996Z,75.80
2023-04-28T16:30:53.737Z,75.20
2023-04-28T16:33:20.437Z,75.70
2023-04-28T16:35:53.406Z,75.70
2023-04-28T16:38:20.601Z,75.80
2023-04-28T16:40:47.395Z,77.20
2023-04-28T16:43:14.350Z,75.90
2023-04-28T16:45:41.364Z,77.10
2023-04-28T16:48:08.348Z,78.10
2023-04-28T16:50:35.026Z,77.00
2023-04-28T16:53:01.619Z,76.90
2023-04-28T16:55:28.597Z,77.40
2023-04-28T16:57:55.224Z,77.10
2023-04-28T17:00:21.942Z,77.30
2023-04-28T17:02:48.739Z,77.20
2023-04-28T17:05:15.533Z,76.80
2023-04-28T17:07:42.328Z,76.50
2023-04-28T17:10:09.308Z,77.30
2023-04-28T17:12:35.893Z,77.30
2023-04-28T17:15:02.466Z,77.70
2023-04-28T17:17:29.769Z,78.90
2023-04-28T17:19:57.626Z,78.40
2023-04-28T17:22:24.183Z,78.10
2023-04-28T17:24:50.818Z,78.50
2023-04-28T17:27:17.372Z,79.30
2023-04-28T17:29:44.050Z,79.90
2023-04-28T17:32:11.109Z,79.70
2023-04-28T17:34:37.769Z,81.70
2023-04-28T17:37:04.454Z,81.50
2023-04-28T17:39:31.682Z,82.30
2023-04-28T17:41:58.615Z,83.50
2023-04-28T17:44:25.758Z,84.40
2023-04-28T17:46:52.481Z,85.50
2023-04-28T17:49:19.146Z,86.60
2023-04-28T17:51:45.818Z,86.20
2023-04-28T17:54:12.462Z,86.90
2023-04-28T17:56:39.269Z,87.10
2023-04-28T17:59:06.182Z,87.30
2023-04-28T18:01:33.980Z,87.90
2023-04-28T18:04:01.050Z,87.20
2023-04-28T18:06:28.985Z,87.10
2023-04-28T18:08:55.627Z,87.80
2023-04-28T18:11:22.925Z,88.90
2023-04-28T18:13:49.759Z,88.70
2023-04-28T18:16:16.492Z,88.80
2023-04-28T18:18:43.109Z,88.90
2023-04-28T18:21:09.733Z,88.90
2023-04-28T18:23:36.382Z,90.00
2023-04-28T18:26:03.041Z,89.50
2023-04-28T18:28:29.757Z,89.90
2023-04-28T18:30:56.350Z,90.10
2023-04-28T18:33:25.873Z,90.40
2023-04-28T18:36:04.507Z,90.20
2023-04-28T18:38:32.292Z,90.30
2023-04-28T18:40:58.879Z,90.40
2023-04-28T18:43:27.783Z,90.40
2023-04-28T18:45:54.413Z,90.60
2023-04-28T18:48:21.359Z,90.60
2023-04-28T18:50:48.681Z,90.60
2023-04-28T18:53:15.640Z,90.40
2023-04-28T18:55:42.259Z,90.50
2023-04-28T18:58:08.813Z,90.50
2023-04-28T19:00:37.184Z,91.00
2023-04-28T19:03:04.370Z,90.70
2023-04-28T19:05:31.170Z,90.80
2023-04-28T19:07:57.781Z,90.90
2023-04-28T19:10:24.368Z,91.00
2023-04-28T19:12:50.977Z,91.00
2023-04-28T19:15:17.711Z,91.10
2023-04-28T19:17:44.499Z,90.80
2023-04-28T19:20:11.288Z,91.10
2023-04-28T19:22:40.165Z,90.90
2023-04-28T19:25:07.366Z,90.90
2023-04-28T19:27:38.138Z,91.00
2023-04-28T19:30:06.141Z,91.50
2023-04-28T19:32:32.734Z,91.00
2023-04-28T19:34:59.376Z,91.10
2023-04-28T19:37:26.257Z,91.00
2023-04-28T19:39:52.897Z,91.30
2023-04-28T19:42:19.737Z,91.20
2023-04-28T19:44:47.206Z,91.30
2023-04-28T19:47:13.881Z,91.50
2023-04-28T19:49:43.410Z,91.30
2023-04-28T19:52:10.234Z,91.10
2023-04-28T19:54:38.757Z,91.00
2023-04-28T19:57:05.433Z,90.90
2023-04-28T19:59:32.079Z,90.90
2023-04-28T20:01:58.774Z,91.20
2023-04-28T20:04:25.990Z,91.30
2023-04-28T20:06:53.597Z,91.10
2023-04-28T20:09:20.164Z,91.20
2023-04-28T20:11:46.970Z,91.30
2023-04-28T20:14:13.856Z,90.90
2023-04-28T20:16:40.477Z,91.00
2023-04-28T20:19:07.075Z,91.10
2023-04-28T20:21:35.018Z,91.40
2023-04-28T20:24:02.061Z,91.40
2023-04-28T20:26:28.754Z,91.10
2023-04-28T20:28:57.058Z,91.40
2023-04-28T20:31:23.799Z,91.40
2023-04-28T20:33:50.522Z,91.50
2023-04-28T20:36:17.235Z,91.30
2023-04-28T20:38:44.364Z,91.40
2023-04-28T20:41:10.938Z,91.30
2023-04-28T20:43:37.973Z,91.30
2023-04-28T20:46:12.535Z,91.30
2023-04-28T20:48:39.537Z,91.50
2023-04-28T20:51:06.506Z,91.30
2023-04-28T20:53:33.195Z,91.50
2023-04-28T20:55:59.928Z,91.30
2023-04-28T20:58:26.702Z,91.60
2023-04-28T21:00:53.503Z,91.30
2023-04-28T21:03:23.438Z,91.30
2023-04-28T21:05:50.201Z,91.60
2023-04-28T21:08:16.956Z,91.60
2023-04-28T21:10:46.279Z,91.50
2023-04-28T21:13:13.164Z,91.90
2023-04-28T21:15:43.030Z,91.90
2023-04-28T21:18:09.805Z,91.90
2023-04-28T21:20:36.543Z,92.00
2023-04-28T21:23:03.217Z,92.00
2023-04-28T21:25:29.941Z,92.10
2023-04-28T21:27:57.007Z,91.90
2023-04-28T21:30:24.074Z,91.90
2023-04-28T21:32:50.689Z,92.10
2023-04-28T21:35:17.335Z,91.90
2023-04-28T21:37:43.935Z,92.10
2023-04-28T21:40:10.678Z,91.80
2023-04-28T21:42:37.373Z,92.00
2023-04-28T21:45:04.405Z,92.00
2023-04-28T21:47:31.055Z,91.90
2023-04-28T21:49:57.722Z,91.90
2023-04-28T21:52:24.573Z,91.80
2023-04-28T21:54:51.171Z,92.50
2023-04-28T21:57:17.808Z,92.20
2023-04-28T21:59:44.687Z,92.30
2023-04-28T22:02:12.576Z,92.10
2023-04-28T22:04:39.266Z,92.40
2023-04-28T22:07:06.403Z,92.20
2023-04-28T22:09:33.455Z,92.40
2023-04-28T22:12:00.055Z,92.40
2023-04-28T22:14:40.235Z,92.10
2023-04-28T22:17:07.917Z,92.00
2023-04-28T22:19:34.534Z,92.30
2023-04-28T22:22:01.131Z,92.30
2023-04-28T22:24:27.881Z,92.30
2023-04-28T22:26:55.009Z,92.30
2023-04-28T22:29:22.058Z,92.60
2023-04-28T22:31:48.794Z,92.90
2023-04-28T22:34:16.741Z,92.90
2023-04-28T22:36:44.970Z,92.90
2023-04-28T22:39:11.860Z,92.80
2023-04-28T22:41:38.518Z,93.00
2023-04-28T22:44:05.336Z,93.10
2023-04-28T22:46:32.009Z,92.90
2023-04-28T22:48:59.023Z,92.90
2023-04-28T22:51:25.601Z,93.00
2023-04-28T22:53:54.215Z,92.90
2023-04-28T22:56:21.410Z,92.80
2023-04-28T22:58:48.065Z,93.00
2023-04-28T23:01:14.739Z,93.10
2023-04-28T23:03:41.661Z,93.10
2023-04-28T23:06:08.384Z,93.00
2023-04-28T23:08:35.514Z,93.20
2023-04-28T23:11:05.358Z,93.30
2023-04-28T23:13:32.047Z,93.20
2023-04-28T23:16:00.289Z,93.20
2023-04-28T23:18:30.434Z,93.20
2023-04-28T23:20:56.997Z,93.10
2023-04-28T23:23:23.628Z,93.20
2023-04-28T23:25:51.365Z,93.10
2023-04-28T23:28:18.590Z,93.10
2023-04-28T23:30:45.280Z,93.30
2023-04-28T23:33:11.934Z,93.20
2023-04-28T23:35:38.519Z,93.20
2023-04-28T23:38:05.136Z,93.10
2023-04-28T23:40:31.736Z,93.20
2023-04-28T23:42:58.293Z,93.40
2023-04-28T23:45:25.403Z,93.30
2023-04-28T23:47:53.328Z,93.60
2023-04-28T23:50:19.924Z,93.40
2023-04-28T23:52:47.103Z,93.50
2023-04-28T23:55:13.748Z,93.60
2023-04-28T23:57:40.335Z,93.40
